Time;durP1;ratioP1;P1;durP2;ratioP2;P2;SDS_P1;SDS_P2;PMS_P1;PMS_P2;Temp;Humidity;BMP_temperature;BMP_pressure;BME280_temperature;BME280_humidity;BME280_pressure;Samples;Min_cycle;Max_cycle;Signal;HPM_P1;HPM_P2
2024/03/18 00:00:20;;;;;;;4.70;4.18;;;12.10;99.90;;;;;;5041426;28;20476;-37
2024/03/18 00:02:47;;;;;;;4.22;3.83;;;12.10;99.90;;;;;;5038035;28;20501;-36
2024/03/18 00:05:17;;;;;;;3.67;3.20;;;12.00;99.90;;;;;;5040610;28;20653;-33
2024/03/18 00:07:44;;;;;;;3.58;3.08;;;12.00;99.90;;;;;;5040609;28;20067;-35
2024/03/18 00:10:11;;;;;;;3.97;3.42;;;12.10;99.90;;;;;;5040948;28;20060;-36
2024/03/18 00:12:37;;;;;;;3.30;3.00;;;12.10;99.90;;;;;;5041000;28;20112;-36
2024/03/18 00:15:08;;;;;;;4.95;3.95;;;12.10;99.90;;;;;;5040663;28;20032;-34
2024/03/18 00:17:36;;;;;;;3.65;3.33;;;12.10;99.90;;;;;;5040434;28;20545;-33
2024/03/18 00:20:13;;;;;;;3.83;3.35;;;12.10;99.90;;;;;;5021888;28;20028;-35
2024/03/18 00:22:40;;;;;;;3.50;3.03;;;12.10;99.90;;;;;;5037337;28;20033;-35
2024/03/18 00:25:06;;;;;;;3.38;3.00;;;12.10;99.90;;;;;;5040891;28;20025;-36
2024/03/18 00:27:32;;;;;;;3.50;3.20;;;12.20;99.90;;;;;;5041256;28;20029;-31
2024/03/18 00:29:58;;;;;;;2.95;2.65;;;12.20;99.90;;;;;;5042280;28;20794;-33
2024/03/18 00:32:23;;;;;;;3.15;2.85;;;12.20;99.90;;;;;;5039331;28;20134;-31
2024/03/18 00:34:52;;;;;;;3.03;2.72;;;12.20;99.90;;;;;;5041807;28;20040;-33
2024/03/18 00:37:18;;;;;;;3.42;3.13;;;12.20;99.90;;;;;;5040715;28;20503;-39
2024/03/18 00:39:44;;;;;;;3.15;2.85;;;12.20;99.90;;;;;;5040626;28;20041;-36
2024/03/18 00:42:10;;;;;;;3.10;2.80;;;12.20;99.90;;;;;;5040804;28;20042;-41
2024/03/18 00:44:35;;;;;;;3.63;3.33;;;12.20;99.90;;;;;;5040893;28;20165;-35
2024/03/18 00:47:02;;;;;;;3.17;2.88;;;12.20;99.90;;;;;;5039892;28;20024;-35
2024/03/18 00:49:29;;;;;;;3.00;2.70;;;12.20;99.90;;;;;;5039243;28;20954;-36
2024/03/18 00:51:55;;;;;;;2.95;2.75;;;12.20;99.90;;;;;;5039477;28;20025;-36
2024/03/18 00:54:20;;;;;;;3.13;2.53;;;12.20;99.90;;;;;;5038452;28;20857;-30
2024/03/18 00:56:46;;;;;;;3.47;2.97;;;12.20;99.90;;;;;;5039263;28;20477;-39
2024/03/18 00:59:12;;;;;;;3.45;3.00;;;12.20;99.90;;;;;;5037730;28;20096;-31
2024/03/18 01:01:38;;;;;;;3.92;3.33;;;12.20;99.90;;;;;;5038761;28;20502;-34
2024/03/18 01:04:04;;;;;;;3.30;3.00;;;12.20;99.90;;;;;;5038710;28;20029;-33
2024/03/18 01:06:30;;;;;;;2.65;2.45;;;12.20;99.90;;;;;;5039645;28;20848;-36
2024/03/18 01:08:56;;;;;;;4.53;3.20;;;12.20;99.90;;;;;;5038996;28;20053;-34
2024/03/18 01:11:21;;;;;;;3.13;2.83;;;12.20;99.90;;;;;;5039339;28;20033;-32
2024/03/18 01:13:48;;;;;;;3.58;3.25;;;12.20;99.90;;;;;;5038569;28;20037;-32
2024/03/18 01:16:19;;;;;;;3.30;3.00;;;12.30;99.90;;;;;;5038073;28;20112;-33
2024/03/18 01:18:45;;;;;;;3.22;2.90;;;12.30;99.90;;;;;;5039903;28;20028;-37
2024/03/18 01:21:11;;;;;;;3.15;2.85;;;12.30;99.90;;;;;;5039075;28;20025;-34
2024/03/18 01:23:37;;;;;;;3.58;3.13;;;12.30;99.90;;;;;;5039086;28;20506;-37
2024/03/18 01:26:03;;;;;;;2.80;2.60;;;12.30;99.90;;;;;;5039337;28;20914;-33
2024/03/18 01:28:29;;;;;;;4.00;3.08;;;12.30;99.90;;;;;;5039727;28;20021;-32
2024/03/18 01:30:56;;;;;;;2.92;2.70;;;12.30;99.90;;;;;;5040073;28;20021;-35
2024/03/18 01:33:22;;;;;;;3.60;3.30;;;12.30;99.90;;;;;;5039049;28;20037;-35
2024/03/18 01:35:49;;;;;;;3.78;3.47;;;12.30;99.90;;;;;;5039663;28;20066;-36
2024/03/18 01:38:14;;;;;;;4.63;3.28;;;12.30;99.90;;;;;;5040070;28;20111;-32
2024/03/18 01:40:41;;;;;;;3.20;2.90;;;12.30;99.90;;;;;;5039296;28;20028;-35
2024/03/18 01:43:08;;;;;;;3.10;2.80;;;12.30;99.90;;;;;;5039364;28;20408;-36
2024/03/18 01:45:35;;;;;;;3.55;2.92;;;12.30;99.90;;;;;;5038813;28;20559;-29
2024/03/18 01:48:04;;;;;;;3.53;3.22;;;12.30;99.90;;;;;;5040055;28;20104;-35
2024/03/18 01:50:30;;;;;;;3.80;3.28;;;12.30;99.90;;;;;;5039522;28;20044;-34
2024/03/18 01:52:55;;;;;;;3.95;3.53;;;12.30;99.90;;;;;;5040755;28;20361;-35
2024/03/18 01:55:24;;;;;;;3.72;3.35;;;12.30;99.90;;;;;;5042918;28;20048;-37
2024/03/18 01:57:50;;;;;;;3.20;2.88;;;12.40;99.90;;;;;;5043907;28;20028;-36
2024/03/18 02:00:23;;;;;;;3.65;3.33;;;12.30;99.90;;;;;;5041223;28;20029;-36
2024/03/18 02:02:49;;;;;;;;;;;12.40;99.90;;;;;;5038515;28;20048;-34
2024/03/18 02:05:15;;;;;;;3.67;3.10;;;12.40;99.90;;;;;;5043536;28;19927;-36
2024/03/18 02:07:42;;;;;;;3.28;2.97;;;12.30;99.90;;;;;;5041090;28;20388;-38
2024/03/18 02:10:11;;;;;;;3.70;3.20;;;12.30;99.90;;;;;;5041687;28;20118;-35
2024/03/18 02:12:37;;;;;;;4.28;3.88;;;12.30;99.90;;;;;;5033467;28;20843;-37
2024/03/18 02:15:03;;;;;;;4.35;3.70;;;12.30;99.90;;;;;;5043947;28;20021;-34
2024/03/18 02:17:29;;;;;;;4.10;3.70;;;12.30;99.90;;;;;;5042535;28;20028;-37
2024/03/18 02:19:55;;;;;;;4.68;3.60;;;12.30;99.90;;;;;;5042780;28;20025;-33
2024/03/18 02:22:21;;;;;;;4.47;4.00;;;12.30;99.90;;;;;;5043216;28;20067;-37
2024/03/18 02:24:46;;;;;;;4.50;4.10;;;12.30;99.90;;;;;;5043067;28;20581;-34
2024/03/18 02:27:13;;;;;;;6.40;5.00;;;12.40;99.90;;;;;;5042014;28;20021;-37
2024/03/18 02:29:39;;;;;;;4.43;4.03;;;12.40;99.90;;;;;;5042778;28;20380;-34
2024/03/18 02:32:06;;;;;;;5.25;4.75;;;12.40;99.90;;;;;;5042897;28;20025;-35
2024/03/18 02:34:32;;;;;;;4.70;4.30;;;12.40;99.90;;;;;;5043475;28;20079;-34
2024/03/18 02:36:58;;;;;;;5.30;4.75;;;12.30;99.90;;;;;;5043049;28;20029;-33
2024/03/18 02:39:27;;;;;;;4.88;4.45;;;12.30;99.90;;;;;;5042271;28;20503;-33
2024/03/18 02:41:54;;;;;;;5.32;4.55;;;12.30;99.90;;;;;;5042570;28;20025;-35
2024/03/18 02:44:21;;;;;;;5.45;4.85;;;12.40;99.90;;;;;;5042612;28;20123;-35
2024/03/18 02:46:50;;;;;;;5.32;4.82;;;12.40;99.90;;;;;;5042409;28;20179;-37
2024/03/18 02:49:16;;;;;;;5.50;5.00;;;12.40;99.90;;;;;;5042343;28;20137;-33
2024/03/18 02:51:41;;;;;;;5.47;4.90;;;12.40;99.90;;;;;;5042140;28;20068;-36
2024/03/18 02:54:07;;;;;;;5.38;4.85;;;12.40;99.90;;;;;;5042669;28;20068;-32
2024/03/18 02:56:33;;;;;;;5.45;4.95;;;12.40;99.90;;;;;;5042275;28;20333;-34
2024/03/18 02:58:58;;;;;;;6.07;5.47;;;12.40;99.90;;;;;;5031466;28;20067;-36
2024/03/18 03:01:25;;;;;;;5.57;4.97;;;12.40;99.90;;;;;;5041767;28;20628;-37
2024/03/18 03:03:51;;;;;;;5.82;5.22;;;12.40;99.90;;;;;;5042326;28;20439;-36
2024/03/18 03:06:20;;;;;;;6.03;5.43;;;12.40;99.90;;;;;;5040300;28;20037;-33
2024/03/18 03:08:46;;;;;;;6.28;5.68;;;12.40;99.90;;;;;;5040752;28;20129;-38
2024/03/18 03:11:12;;;;;;;5.63;5.07;;;12.40;99.90;;;;;;5042847;28;20092;-35
2024/03/18 03:13:39;;;;;;;6.32;5.70;;;12.40;99.90;;;;;;5040837;28;20143;-35
2024/03/18 03:16:14;;;;;;;5.43;4.93;;;12.40;99.90;;;;;;5042579;28;20021;-37
2024/03/18 03:18:39;;;;;;;6.78;5.07;;;12.40;99.90;;;;;;5042080;28;20021;-36
2024/03/18 03:21:05;;;;;;;7.10;5.35;;;12.50;99.90;;;;;;5041237;28;20554;-34
2024/03/18 03:23:33;;;;;;;5.32;4.63;;;12.50;99.90;;;;;;5041401;28;20131;-37
2024/03/18 03:25:58;;;;;;;5.20;4.70;;;12.50;99.90;;;;;;5041201;28;20025;-32
2024/03/18 03:28:28;;;;;;;5.95;5.20;;;12.50;99.90;;;;;;5040420;28;20094;-35
2024/03/18 03:31:10;;;;;;;5.30;4.80;;;12.50;99.90;;;;;;5042413;28;20524;-36
2024/03/18 03:33:38;;;;;;;5.07;4.57;;;12.50;99.90;;;;;;5041344;28;20025;-35
2024/03/18 03:36:04;;;;;;;6.07;5.47;;;12.50;99.90;;;;;;5041453;28;20056;-38
2024/03/18 03:38:30;;;;;;;6.53;5.43;;;12.50;99.90;;;;;;5041464;28;20112;-35
2024/03/18 03:40:55;;;;;;;6.13;5.38;;;12.50;99.90;;;;;;5041784;28;20130;-34
2024/03/18 03:43:22;;;;;;;5.80;5.25;;;12.50;99.90;;;;;;5041186;28;20670;-36
2024/03/18 03:45:57;;;;;;;6.03;5.43;;;12.50;99.90;;;;;;5040762;28;20028;-36
2024/03/18 03:48:24;;;;;;;6.63;5.93;;;12.50;99.90;;;;;;5040720;28;20021;-35
2024/03/18 03:50:50;;;;;;;6.68;5.68;;;12.50;99.90;;;;;;5041438;28;20491;-36
2024/03/18 03:53:17;;;;;;;5.97;5.38;;;12.50;99.90;;;;;;5041285;28;20142;-34
2024/03/18 03:55:43;;;;;;;6.53;5.70;;;12.50;99.90;;;;;;5039707;28;20344;-34
2024/03/18 03:58:09;;;;;;;5.60;5.00;;;12.50;99.90;;;;;;5041626;28;20510;-33
2024/03/18 04:00:35;;;;;;;6.53;5.38;;;12.50;99.90;;;;;;5040919;28;20025;-35
2024/03/18 04:03:00;;;;;;;5.90;5.30;;;12.50;99.90;;;;;;5040487;28;20766;-33
2024/03/18 04:05:26;;;;;;;5.07;4.60;;;12.50;99.90;;;;;;5041156;28;20043;-35
2024/03/18 04:07:52;;;;;;;5.65;5.15;;;12.50;99.90;;;;;;5039126;28;20454;-36
2024/03/18 04:10:17;;;;;;;5.88;4.78;;;12.50;99.90;;;;;;5039533;28;20025;-35
2024/03/18 04:12:43;;;;;;;5.18;4.72;;;12.50;99.90;;;;;;5041609;28;20032;-36
2024/03/18 04:15:11;;;;;;;6.07;5.47;;;12.50;99.90;;;;;;5040668;28;20460;-34
2024/03/18 04:17:37;;;;;;;6.00;5.40;;;12.50;99.90;;;;;;5039293;28;20501;-34
2024/03/18 04:20:15;;;;;;;6.35;5.45;;;12.50;99.90;;;;;;5040897;28;20032;-35
2024/03/18 04:22:40;;;;;;;6.57;5.50;;;12.50;99.90;;;;;;5041154;28;20059;-37
2024/03/18 04:25:06;;;;;;;6.00;5.40;;;12.50;99.90;;;;;;5040590;28;20040;-36
2024/03/18 04:27:32;;;;;;;6.50;5.60;;;12.50;99.90;;;;;;5040023;28;20033;-36
2024/03/18 04:29:57;;;;;;;6.75;5.88;;;12.50;99.90;;;;;;5041084;28;20029;-34
2024/03/18 04:32:23;;;;;;;6.97;6.05;;;12.50;99.90;;;;;;5032566;28;20114;-40
2024/03/18 04:34:51;;;;;;;6.38;5.78;;;12.50;99.90;;;;;;5041482;28;20029;-32
2024/03/18 04:37:17;;;;;;;6.63;5.95;;;12.50;99.90;;;;;;5034965;28;20033;-37
2024/03/18 04:39:42;;;;;;;6.75;6.15;;;12.50;99.90;;;;;;5040704;28;20017;-36
2024/03/18 04:42:08;;;;;;;6.60;5.85;;;12.50;99.90;;;;;;5041077;28;20082;-32
2024/03/18 04:44:33;;;;;;;6.80;6.13;;;12.50;99.90;;;;;;5038981;28;20037;-35
2024/03/18 04:47:02;;;;;;;7.00;6.22;;;12.50;99.90;;;;;;5040285;28;20028;-35
2024/03/18 04:49:28;;;;;;;6.35;5.75;;;12.50;99.90;;;;;;5040003;28;20095;-33
2024/03/18 04:51:53;;;;;;;7.40;6.10;;;12.50;99.90;;;;;;5039313;28;20040;-35
2024/03/18 04:54:19;;;;;;;6.72;6.03;;;12.50;99.90;;;;;;5039285;28;20792;-36
2024/03/18 04:56:50;;;;;;;6.63;5.93;;;12.50;99.90;;;;;;5039658;28;20032;-36
2024/03/18 04:59:16;;;;;;;7.03;6.32;;;12.50;99.90;;;;;;5039803;28;20025;-36
2024/03/18 05:01:41;;;;;;;7.53;6.72;;;12.50;99.90;;;;;;5040262;28;20028;-34
2024/03/18 05:04:13;;;;;;;7.45;6.75;;;12.50;99.90;;;;;;5040485;28;20157;-36
2024/03/18 05:06:39;;;;;;;7.80;6.50;;;12.50;99.90;;;;;;5039386;28;20025;-34
2024/03/18 05:09:08;;;;;;;6.80;6.10;;;12.50;99.90;;;;;;5040773;28;20053;-35
2024/03/18 05:11:34;;;;;;;6.80;6.18;;;12.50;99.90;;;;;;5038452;28;20048;-34
2024/03/18 05:14:00;;;;;;;7.55;6.63;;;12.50;99.90;;;;;;5040654;28;20064;-35
2024/03/18 05:16:27;;;;;;;7.10;6.25;;;12.50;99.90;;;;;;5039539;28;20777;-36
2024/03/18 05:18:53;;;;;;;7.85;6.82;;;12.40;99.90;;;;;;5040895;28;20029;-34
2024/03/18 05:21:18;;;;;;;7.72;6.93;;;12.50;99.90;;;;;;5039258;28;20029;-37
2024/03/18 05:23:44;;;;;;;8.02;7.22;;;12.40;99.90;;;;;;5040317;28;20090;-36
2024/03/18 05:26:12;;;;;;;8.10;6.80;;;12.50;99.90;;;;;;5038986;28;20047;-31
2024/03/18 05:28:37;;;;;;;8.07;7.13;;;12.50;99.90;;;;;;5038761;28;20035;-36
2024/03/18 05:31:03;;;;;;;8.02;7.07;;;12.40;99.90;;;;;;5040421;28;20021;-34
2024/03/18 05:33:28;;;;;;;8.50;6.40;;;12.40;99.90;;;;;;5039244;28;20082;-36
2024/03/18 05:35:54;;;;;;;8.10;6.40;;;12.50;99.90;;;;;;5039887;28;20028;-33
2024/03/18 05:38:20;;;;;;;7.40;6.70;;;12.50;99.90;;;;;;5039971;28;20032;-36
2024/03/18 05:40:46;;;;;;;7.13;6.43;;;12.50;99.90;;;;;;5039694;28;20105;-33
2024/03/18 05:43:11;;;;;;;7.70;6.70;;;12.50;99.90;;;;;;5039583;28;20056;-32
2024/03/18 05:45:37;;;;;;;8.88;7.97;;;12.40;99.90;;;;;;5036526;28;20298;-34
2024/03/18 05:48:03;;;;;;;7.50;6.80;;;12.50;99.90;;;;;;5038168;28;20116;-35
2024/03/18 05:50:28;;;;;;;7.68;6.35;;;12.50;99.90;;;;;;5037858;28;20021;-36
2024/03/18 05:52:57;;;;;;;8.40;7.60;;;12.40;99.90;;;;;;5038421;28;20119;-36
2024/03/18 05:55:22;;;;;;;8.05;7.25;;;12.40;99.90;;;;;;5037364;28;20029;-33
2024/03/18 05:57:48;;;;;;;8.32;7.30;;;12.40;99.90;;;;;;5038772;28;20032;-31
2024/03/18 06:00:14;;;;;;;8.93;7.28;;;12.40;99.90;;;;;;5036396;28;20155;-37
2024/03/18 06:02:40;;;;;;;7.93;6.97;;;12.40;99.90;;;;;;5039334;28;20079;-37
2024/03/18 06:05:09;;;;;;;8.43;7.22;;;12.50;99.90;;;;;;5039557;28;20033;-35
2024/03/18 06:07:35;;;;;;;7.85;7.05;;;12.40;99.90;;;;;;5040195;28;20029;-33
2024/03/18 06:10:01;;;;;;;8.90;7.57;;;12.40;99.90;;;;;;5038978;28;20049;-35
2024/03/18 06:12:28;;;;;;;9.23;7.90;;;12.40;99.90;;;;;;5040040;28;20111;-35
2024/03/18 06:14:57;;;;;;;8.68;7.80;;;12.40;99.90;;;;;;5038852;28;20027;-36
2024/03/18 06:17:23;;;;;;;8.02;7.22;;;12.40;99.90;;;;;;5038919;28;20114;-35
2024/03/18 06:20:03;;;;;;;8.88;7.40;;;12.40;99.90;;;;;;5040621;28;20025;-31
2024/03/18 06:22:37;;;;;;;7.75;6.95;;;12.40;99.90;;;;;;5037968;28;20619;-32
2024/03/18 06:27:49;;;;;;;8.68;7.10;;;12.40;99.90;;;;;;5039840;28;20044;-35
2024/03/18 06:30:15;;;;;;;9.10;6.80;;;12.50;99.90;;;;;;5037316;28;20025;-35
2024/03/18 06:32:40;;;;;;;8.18;6.90;;;12.50;99.90;;;;;;5035809;28;20056;-36
2024/03/18 06:35:06;;;;;;;8.50;7.45;;;12.50;99.90;;;;;;5038217;28;20025;-33
2024/03/18 06:37:35;;;;;;;8.35;7.45;;;12.50;99.90;;;;;;5038021;28;20164;-37
2024/03/18 06:40:04;;;;;;;16.73;8.50;;;12.50;99.90;;;;;;5041841;28;20487;-37
2024/03/18 06:42:30;;;;;;;8.93;7.85;;;12.50;99.90;;;;;;5040527;28;20029;-32
2024/03/18 06:44:55;;;;;;;9.50;8.13;;;12.50;99.90;;;;;;5040698;28;20614;-36
2024/03/18 06:47:21;;;;;;;7.72;6.93;;;12.60;99.90;;;;;;5039547;28;20025;-34
2024/03/18 06:49:49;;;;;;;8.50;7.57;;;12.60;99.90;;;;;;5041421;28;20061;-36
2024/03/18 06:52:15;;;;;;;9.75;7.82;;;12.60;99.90;;;;;;5040413;28;20128;-32
2024/03/18 06:54:40;;;;;;;10.73;8.10;;;12.60;99.90;;;;;;5040799;28;20021;-35
2024/03/18 06:57:07;;;;;;;10.15;7.85;;;12.60;99.90;;;;;;5041972;28;20126;-31
2024/03/18 06:59:33;;;;;;;8.48;7.53;;;12.70;99.90;;;;;;5037633;28;20108;-35
2024/03/18 07:02:00;;;;;;;8.50;7.60;;;12.60;99.90;;;;;;5039875;28;20036;-36
2024/03/18 07:04:25;;;;;;;9.85;8.20;;;12.60;99.90;;;;;;5041505;28;20125;-36
2024/03/18 07:06:51;;;;;;;9.07;7.93;;;12.70;99.90;;;;;;5042080;28;20017;-33
2024/03/18 07:09:16;;;;;;;8.65;7.70;;;12.60;99.90;;;;;;5040891;28;20055;-38
2024/03/18 07:11:42;;;;;;;8.93;7.93;;;12.60;99.90;;;;;;5037926;28;20051;-35
2024/03/18 07:14:08;;;;;;;8.90;8.00;;;12.60;99.90;;;;;;5042574;28;20029;-37
2024/03/18 07:16:33;;;;;;;9.27;7.60;;;12.70;99.90;;;;;;5042210;28;20021;-37
2024/03/18 07:18:59;;;;;;;8.85;7.95;;;12.60;99.90;;;;;;5040965;28;20025;-35
2024/03/18 07:21:25;;;;;;;9.15;8.05;;;12.70;99.90;;;;;;5042272;28;20082;-37
2024/03/18 07:23:50;;;;;;;9.52;8.52;;;12.60;99.90;;;;;;5040704;28;20558;-36
2024/03/18 07:26:16;;;;;;;11.00;9.38;;;12.60;99.90;;;;;;5041926;28;20112;-31
2024/03/18 07:28:42;;;;;;;12.85;9.43;;;12.60;99.90;;;;;;5041233;28;20021;-35
2024/03/18 07:31:13;;;;;;;11.02;9.32;;;12.60;99.90;;;;;;5039579;28;20099;-36
2024/03/18 07:33:42;;;;;;;9.73;8.73;;;12.60;99.90;;;;;;5039184;28;20040;-37
2024/03/18 07:36:07;;;;;;;10.00;8.52;;;12.60;99.90;;;;;;5041029;28;20049;-33
2024/03/18 07:38:33;;;;;;;10.63;8.82;;;12.60;99.90;;;;;;5041582;28;20786;-36
2024/03/18 07:41:00;;;;;;;11.55;9.55;;;12.60;99.90;;;;;;5041742;28;20028;-36
2024/03/18 07:43:25;;;;;;;10.60;8.93;;;12.60;99.90;;;;;;5041268;28;20040;-37
2024/03/18 07:45:51;;;;;;;10.85;9.32;;;12.70;99.90;;;;;;5041786;28;20025;-32
2024/03/18 07:48:16;;;;;;;10.52;8.98;;;12.70;99.90;;;;;;5041361;28;20029;-36
2024/03/18 07:50:42;;;;;;;10.63;9.05;;;12.80;99.90;;;;;;5040597;28;20918;-35
2024/03/18 07:53:07;;;;;;;11.05;9.85;;;12.80;99.90;;;;;;5040901;28;20025;-32
2024/03/18 07:55:33;;;;;;;10.25;9.07;;;12.90;99.90;;;;;;5040528;28;20025;-37
2024/03/18 07:57:59;;;;;;;10.95;9.43;;;12.90;99.90;;;;;;5041550;28;20033;-32
2024/03/18 08:00:24;;;;;;;13.32;11.00;;;12.90;99.90;;;;;;5041227;28;20490;-34
2024/03/18 08:02:50;;;;;;;12.70;9.88;;;13.00;99.90;;;;;;5041322;28;20052;-36
2024/03/18 08:05:18;;;;;;;11.77;9.98;;;13.00;99.90;;;;;;5042103;28;20547;-34
2024/03/18 08:07:44;;;;;;;10.70;9.55;;;13.10;99.90;;;;;;5041573;28;20482;-32
2024/03/18 08:10:10;;;;;;;12.07;10.00;;;13.10;99.90;;;;;;5040925;28;20049;-35
2024/03/18 08:12:35;;;;;;;10.10;8.98;;;13.20;99.90;;;;;;5041547;28;20488;-37
2024/03/18 08:15:01;;;;;;;11.98;9.63;;;13.30;99.90;;;;;;5041419;28;20499;-38
2024/03/18 08:17:27;;;;;;;12.07;10.30;;;13.30;99.90;;;;;;5041252;28;20048;-35
2024/03/18 08:19:52;;;;;;;11.57;10.30;;;13.40;99.90;;;;;;5041771;28;20757;-40
2024/03/18 08:22:18;;;;;;;11.63;9.52;;;13.40;99.90;;;;;;5040281;28;20025;-34
2024/03/18 08:24:46;;;;;;;12.13;10.15;;;13.50;99.90;;;;;;5041686;28;20029;-38
2024/03/18 08:27:15;;;;;;;11.77;10.57;;;13.50;99.90;;;;;;5040775;28;20761;-34
2024/03/18 08:29:41;;;;;;;13.15;10.50;;;13.50;99.90;;;;;;5040677;28;20104;-35
2024/03/18 08:32:09;;;;;;;11.88;10.38;;;13.50;99.90;;;;;;5039892;28;20647;-39
2024/03/18 08:34:35;;;;;;;11.35;10.00;;;13.50;99.90;;;;;;5038971;28;20041;-35
2024/03/18 08:37:01;;;;;;;14.38;11.05;;;13.50;99.90;;;;;;5039595;28;20354;-36
2024/03/18 08:39:27;;;;;;;10.57;9.35;;;13.50;99.90;;;;;;5039189;28;20040;-38
2024/03/18 08:41:52;;;;;;;12.32;9.93;;;13.50;99.90;;;;;;5039465;28;20468;-37
2024/03/18 08:44:18;;;;;;;10.77;9.55;;;13.50;99.90;;;;;;5038106;28;20067;-36
2024/03/18 08:46:44;;;;;;;10.73;9.63;;;13.60;99.90;;;;;;5040456;28;20029;-34
2024/03/18 08:49:13;;;;;;;13.93;9.05;;;13.50;99.90;;;;;;5040612;28;20027;-31
2024/03/18 08:51:40;;;;;;;13.48;10.45;;;13.50;99.90;;;;;;5040576;28;20021;-34
2024/03/18 08:54:06;;;;;;;12.45;9.75;;;13.50;99.90;;;;;;5040932;28;20035;-37
2024/03/18 08:56:32;;;;;;;12.07;9.75;;;13.50;99.90;;;;;;5041022;28;20020;-35
2024/03/18 08:58:58;;;;;;;10.93;9.45;;;13.50;99.90;;;;;;5040550;28;20386;-37
2024/03/18 09:01:24;;;;;;;12.40;9.75;;;13.40;99.90;;;;;;5040327;28;20484;-37
2024/03/18 09:03:49;;;;;;;13.55;10.80;;;13.40;99.90;;;;;;5040644;28;20025;-36
2024/03/18 09:06:15;;;;;;;13.38;10.70;;;13.30;99.90;;;;;;5040296;28;20674;-34
2024/03/18 09:08:45;;;;;;;11.90;9.73;;;13.30;99.90;;;;;;5039742;28;20049;-35
2024/03/18 09:11:11;;;;;;;18.35;12.45;;;13.20;99.90;;;;;;5040173;28;20390;-35
2024/03/18 09:13:37;;;;;;;17.70;12.23;;;13.20;99.90;;;;;;5040286;28;20032;-35
2024/03/18 09:16:03;;;;;;;14.02;11.57;;;13.10;99.90;;;;;;5039404;28;20032;-34
2024/03/18 09:18:29;;;;;;;14.55;11.98;;;13.10;99.90;;;;;;5040556;28;20033;-36
2024/03/18 09:20:56;;;;;;;13.18;10.95;;;13.00;99.90;;;;;;5040307;28;20825;-36
2024/03/18 09:23:22;;;;;;;14.57;11.43;;;13.00;99.90;;;;;;5040564;28;20068;-33
2024/03/18 09:25:51;;;;;;;14.63;10.55;;;12.90;99.90;;;;;;5040358;28;20028;-34
2024/03/18 09:28:16;;;;;;;13.40;10.23;;;12.90;99.90;;;;;;5020427;28;20033;-33
2024/03/18 09:30:43;;;;;;;13.88;11.07;;;12.90;99.90;;;;;;5034361;28;20013;-32
2024/03/18 09:33:11;;;;;;;14.18;10.23;;;12.80;99.90;;;;;;5039566;28;20032;-33
2024/03/18 09:35:37;;;;;;;12.57;9.63;;;12.80;99.90;;;;;;5039672;28;20564;-36
2024/03/18 09:38:03;;;;;;;12.73;10.20;;;12.80;99.90;;;;;;5040267;28;20589;-34
2024/03/18 09:40:29;;;;;;;12.50;9.77;;;12.80;99.90;;;;;;5039444;28;20017;-37
2024/03/18 09:42:55;;;;;;;11.48;8.98;;;12.80;99.90;;;;;;5039670;28;20083;-34
2024/03/18 09:45:22;;;;;;;12.52;9.75;;;12.80;99.90;;;;;;5039465;28;20412;-38
2024/03/18 09:47:48;;;;;;;11.65;9.65;;;12.90;99.90;;;;;;5040109;28;20079;-35
2024/03/18 09:50:16;;;;;;;12.55;10.02;;;12.90;99.90;;;;;;5039914;28;20033;-37
2024/03/18 09:52:43;;;;;;;11.88;9.43;;;13.00;99.90;;;;;;5039618;28;20047;-36
2024/03/18 09:55:24;;;;;;;11.70;9.68;;;13.00;99.90;;;;;;5039133;28;20531;-34
2024/03/18 09:57:51;;;;;;;12.02;9.45;;;13.10;99.90;;;;;;5040000;28;20054;-34
2024/03/18 10:00:19;;;;;;;11.77;9.18;;;13.20;99.90;;;;;;5039943;28;20056;-37
2024/03/18 10:02:48;;;;;;;10.07;8.93;;;13.40;99.90;;;;;;5038733;28;20048;-35
2024/03/18 10:05:14;;;;;;;12.80;9.52;;;13.50;99.90;;;;;;5038727;28;20107;-35
2024/03/18 10:07:40;;;;;;;9.55;8.55;;;13.60;99.90;;;;;;5037325;28;20016;-32
2024/03/18 10:10:16;;;;;;;10.02;8.43;;;13.70;99.90;;;;;;5038469;28;20053;-32
2024/03/18 10:12:42;;;;;;;11.27;9.48;;;13.80;99.90;;;;;;5039015;28;20068;-36
2024/03/18 10:15:12;;;;;;;12.15;9.18;;;13.90;99.90;;;;;;5040636;28;20590;-37
2024/03/18 10:17:39;;;;;;;12.18;9.52;;;14.00;99.90;;;;;;5043069;28;20072;-34
2024/03/18 10:20:20;;;;;;;14.63;9.55;;;14.00;99.90;;;;;;5043559;28;20111;-34
2024/03/18 10:22:54;;;;;;;12.25;8.35;;;14.10;99.90;;;;;;5042865;28;20160;-37
2024/03/18 10:25:24;;;;;;;12.05;8.35;;;14.00;99.90;;;;;;5043200;28;20029;-36
2024/03/18 10:27:53;;;;;;;9.88;8.10;;;14.10;99.90;;;;;;5043374;28;20029;-39
2024/03/18 10:30:19;;;;;;;9.80;8.63;;;14.10;99.90;;;;;;5042382;28;20037;-36
2024/03/18 10:32:49;;;;;;;14.23;8.90;;;14.20;99.90;;;;;;5043073;28;20021;-34
2024/03/18 10:35:32;;;;;;;12.77;8.65;;;14.40;99.90;;;;;;5043437;28;20064;-38
2024/03/18 10:38:05;;;;;;;10.52;8.65;;;14.40;99.90;;;;;;5042889;28;20024;-34
2024/03/18 10:40:39;;;;;;;10.98;8.27;;;14.50;99.90;;;;;;5043675;28;21032;-36
2024/03/18 10:43:07;;;;;;;10.27;8.10;;;14.40;99.90;;;;;;5042692;28;20033;-37
2024/03/18 10:45:35;;;;;;;9.63;8.27;;;14.40;99.90;;;;;;5042924;28;20487;-34
2024/03/18 10:48:10;;;;;;;9.30;7.80;;;14.30;99.90;;;;;;5043245;28;20033;-37
2024/03/18 10:50:35;;;;;;;8.98;7.18;;;14.30;99.90;;;;;;5042084;28;20108;-36
2024/03/18 10:53:20;;;;;;;8.10;6.72;;;14.20;99.90;;;;;;5043566;28;20158;-34
2024/03/18 10:55:48;;;;;;;9.13;7.35;;;14.20;99.90;;;;;;5042887;28;20056;-34
2024/03/18 10:58:15;;;;;;;9.07;8.00;;;14.10;99.90;;;;;;5042136;28;20024;-32
2024/03/18 11:00:41;;;;;;;9.95;7.53;;;14.00;99.90;;;;;;5043316;28;20033;-35
2024/03/18 11:03:19;;;;;;;10.88;8.18;;;13.90;99.90;;;;;;5043088;28;20088;-32
2024/03/18 11:05:52;;;;;;;8.52;7.30;;;13.90;99.90;;;;;;5042961;28;20048;-36
2024/03/18 11:08:20;;;;;;;11.43;7.65;;;13.80;99.90;;;;;;5042083;28;20053;-36
2024/03/18 11:10:47;;;;;;;10.35;7.72;;;13.80;99.90;;;;;;5042312;28;20029;-35
2024/03/18 11:13:15;;;;;;;10.63;8.40;;;13.80;99.90;;;;;;5043174;28;20025;-35
2024/03/18 11:15:55;;;;;;;10.70;8.40;;;13.80;99.90;;;;;;5042635;28;20502;-35
2024/03/18 11:18:25;;;;;;;10.43;8.20;;;13.70;99.90;;;;;;5041646;28;20028;-36
2024/03/18 11:20:57;;;;;;;11.18;7.75;;;13.70;99.90;;;;;;5043028;28;20021;-36
2024/03/18 11:23:24;;;;;;;10.25;8.13;;;13.70;99.90;;;;;;5041866;28;20040;-36
2024/03/18 11:26:07;;;;;;;12.43;8.45;;;13.70;99.90;;;;;;5040813;28;20039;-37
2024/03/18 11:28:38;;;;;;;11.65;8.52;;;13.80;99.90;;;;;;5041724;28;20479;-34
2024/03/18 11:31:06;;;;;;;12.15;8.52;;;13.90;99.90;;;;;;5030988;28;20021;-35
2024/03/18 11:33:35;;;;;;;10.13;7.25;;;14.00;99.90;;;;;;5041816;28;20074;-38
2024/03/18 11:36:03;;;;;;;11.60;7.75;;;14.20;99.90;;;;;;5042812;28;20033;-37
2024/03/18 11:38:32;;;;;;;10.45;7.65;;;14.30;99.90;;;;;;5042208;28;20135;-33
2024/03/18 11:40:59;;;;;;;9.68;7.10;;;14.30;99.90;;;;;;5036948;28;20029;-37
2024/03/18 11:43:24;;;;;;;9.70;7.53;;;14.30;99.90;;;;;;5040286;28;20799;-36
2024/03/18 11:45:52;;;;;;;10.77;7.53;;;14.30;99.90;;;;;;5040501;28;20036;-37
2024/03/18 11:48:19;;;;;;;10.00;7.40;;;14.30;99.90;;;;;;5039737;28;20622;-37
2024/03/18 11:50:46;;;;;;;11.10;7.38;;;14.40;99.90;;;;;;5040201;28;20106;-35
2024/03/18 11:53:15;;;;;;;10.30;6.95;;;14.50;99.90;;;;;;5040452;28;20140;-36
2024/03/18 11:55:41;;;;;;;9.32;6.95;;;14.60;99.90;;;;;;5041830;28;20056;-34
2024/03/18 11:58:12;;;;;;;8.75;6.75;;;14.70;99.90;;;;;;5041143;28;20116;-35
2024/03/18 12:00:37;;;;;;;9.80;6.63;;;14.90;99.90;;;;;;5040713;28;20036;-36
2024/03/18 12:03:06;;;;;;;8.38;5.70;;;15.10;99.90;;;;;;5041718;28;20036;-34
2024/03/18 12:05:34;;;;;;;9.40;6.07;;;15.20;99.90;;;;;;5040822;28;20021;-36
2024/03/18 12:08:01;;;;;;;9.15;6.20;;;15.40;99.90;;;;;;5040438;28;20104;-34
2024/03/18 12:10:30;;;;;;;9.45;5.38;;;15.50;99.90;;;;;;5040259;28;20052;-32
2024/03/18 12:12:57;;;;;;;7.95;5.22;;;15.60;99.90;;;;;;5041260;28;20601;-30
2024/03/18 12:15:23;;;;;;;8.95;5.10;;;15.70;99.90;;;;;;5040373;28;20055;-33
2024/03/18 12:17:51;;;;;;;8.75;5.57;;;15.80;99.90;;;;;;5042142;28;20028;-35
2024/03/18 12:20:27;;;;;;;9.77;5.82;;;15.90;99.90;;;;;;5041276;28;20028;-37
2024/03/18 12:23:10;;;;;;;7.90;4.97;;;15.90;99.90;;;;;;5029916;28;20051;-34
2024/03/18 12:28:32;;;;;;;10.32;5.38;;;16.00;99.90;;;;;;5039187;28;20152;-36
2024/03/18 12:31:04;;;;;;;7.60;5.07;;;16.00;99.90;;;;;;5037045;28;20636;-37
2024/03/18 12:33:33;;;;;;;8.40;5.20;;;16.00;99.90;;;;;;5040342;28;20025;-35
2024/03/18 12:35:59;;;;;;;6.07;4.55;;;16.00;99.90;;;;;;5039008;28;20037;-36
2024/03/18 12:38:34;;;;;;;8.77;5.28;;;16.10;99.90;;;;;;5039232;28;20028;-34
2024/03/18 12:41:00;;;;;;;8.63;4.95;;;16.10;99.90;;;;;;5040431;28;20039;-36
2024/03/18 12:43:25;;;;;;;10.10;5.50;;;16.10;99.90;;;;;;5039778;28;20045;-33
2024/03/18 12:45:51;;;;;;;7.82;4.90;;;16.10;99.90;;;;;;5040977;28;20032;-38
2024/03/18 12:48:17;;;;;;;11.20;5.47;;;16.10;99.90;;;;;;5040713;28;20033;-37